createdAt,value
2022-11-14T00:01:30.771Z,4.60
2022-11-14T00:04:02.328Z,4.50
2022-11-14T00:06:33.801Z,3.90
2022-11-14T00:09:05.553Z,4.10
2022-11-14T00:11:37.149Z,4.00
2022-11-14T00:14:09.067Z,4.10
2022-11-14T00:16:40.425Z,3.90
2022-11-14T00:19:11.912Z,3.90
2022-11-14T00:21:43.250Z,4.20
2022-11-14T00:24:15.498Z,4.10
2022-11-14T00:26:47.271Z,4.40
2022-11-14T00:29:19.660Z,4.50
2022-11-14T00:31:51.364Z,4.20
2022-11-14T00:34:22.700Z,3.90
2022-11-14T00:36:54.398Z,4.50
2022-11-14T00:39:25.777Z,4.50
2022-11-14T00:41:57.213Z,4.70
2022-11-14T00:44:28.528Z,4.70
2022-11-14T00:47:00.163Z,4.00
2022-11-14T00:49:39.302Z,4.00
2022-11-14T00:52:10.678Z,4.60
2022-11-14T00:54:42.222Z,5.20
2022-11-14T00:57:13.635Z,4.90
2022-11-14T00:59:44.998Z,5.00
2022-11-14T01:02:16.322Z,5.30
2022-11-14T01:04:47.716Z,5.60
2022-11-14T01:07:19.081Z,4.90
2022-11-14T01:09:50.482Z,4.80
2022-11-14T01:12:21.970Z,4.70
2022-11-14T01:14:53.309Z,4.70
2022-11-14T01:17:24.665Z,5.00
2022-11-14T01:19:56.091Z,4.90
2022-11-14T01:22:27.583Z,4.20
2022-11-14T01:24:59.429Z,4.90
2022-11-14T01:27:33.473Z,4.20
2022-11-14T01:30:04.976Z,4.70
2022-11-14T01:32:36.543Z,4.30
2022-11-14T01:35:10.019Z,4.60
2022-11-14T01:37:41.374Z,4.40
2022-11-14T01:40:14.730Z,4.70
2022-11-14T01:43:06.329Z,4.20
2022-11-14T01:45:56.622Z,5.10
2022-11-14T01:48:33.123Z,4.80
2022-11-14T01:51:15.053Z,3.90
2022-11-14T01:53:49.420Z,4.90
2022-11-14T01:56:24.818Z,4.50
2022-11-14T01:59:01.720Z,4.60
2022-11-14T02:01:36.515Z,4.90
2022-11-14T02:06:43.366Z,4.80
2022-11-14T02:09:14.999Z,5.40
2022-11-14T02:11:47.821Z,5.80
2022-11-14T02:14:19.344Z,5.80
2022-11-14T02:17:07.694Z,5.40
2022-11-14T02:19:48.507Z,6.20
2022-11-14T02:22:20.556Z,5.90
2022-11-14T02:24:51.899Z,5.80
2022-11-14T02:27:23.593Z,6.30
2022-11-14T02:29:54.967Z,5.80
2022-11-14T02:32:26.318Z,7.00
2022-11-14T02:34:57.593Z,5.40
2022-11-14T02:37:28.880Z,6.90
2022-11-14T02:40:00.207Z,7.20
2022-11-14T02:42:31.573Z,6.70
2022-11-14T02:45:03.008Z,6.00
2022-11-14T02:47:34.416Z,7.60
2022-11-14T02:50:06.030Z,7.80
2022-11-14T02:52:37.430Z,8.50
2022-11-14T02:55:10.067Z,7.30
2022-11-14T02:57:41.386Z,6.50
2022-11-14T03:00:15.403Z,8.90
2022-11-14T03:02:46.849Z,7.20
2022-11-14T03:05:18.480Z,6.40
2022-11-14T03:07:50.159Z,6.00
2022-11-14T03:10:22.167Z,7.00
2022-11-14T03:12:56.745Z,6.20
2022-11-14T03:15:28.136Z,6.40
2022-11-14T03:17:59.410Z,7.10
2022-11-14T03:20:30.689Z,6.50
2022-11-14T03:23:02.136Z,6.90
2022-11-14T03:25:33.615Z,7.00
2022-11-14T03:28:05.140Z,7.00
2022-11-14T03:30:36.443Z,6.00
2022-11-14T03:33:07.820Z,6.20
2022-11-14T03:35:43.343Z,7.40
2022-11-14T03:38:14.608Z,6.40
2022-11-14T03:40:46.589Z,8.00
2022-11-14T03:43:18.323Z,7.70
2022-11-14T03:45:50.123Z,8.40
2022-11-14T03:48:21.648Z,7.80
2022-11-14T03:50:53.107Z,8.00
2022-11-14T03:53:24.799Z,10.10
2022-11-14T03:55:56.359Z,8.80
2022-11-14T03:58:28.086Z,9.60
2022-11-14T04:00:59.887Z,9.50
2022-11-14T04:03:31.301Z,10.00
2022-11-14T04:06:03.501Z,9.40
2022-11-14T04:08:35.078Z,10.10
2022-11-14T04:11:06.546Z,10.20
2022-11-14T04:13:38.055Z,9.70
2022-11-14T04:16:10.120Z,10.20
2022-11-14T04:18:41.463Z,8.40
2022-11-14T04:21:12.889Z,8.40
2022-11-14T04:23:51.799Z,8.00
2022-11-14T04:26:32.661Z,6.00
2022-11-14T04:29:13.349Z,6.40
2022-11-14T04:31:44.776Z,5.40
2022-11-14T04:34:16.050Z,6.40
2022-11-14T04:36:47.448Z,5.50
2022-11-14T04:39:19.074Z,6.10
2022-11-14T04:41:50.329Z,6.30
2022-11-14T04:44:21.659Z,6.50
2022-11-14T04:46:53.067Z,5.30
2022-11-14T04:49:24.548Z,5.90
2022-11-14T04:51:55.927Z,6.00
2022-11-14T04:54:27.351Z,5.60
2022-11-14T04:56:58.653Z,5.00
2022-11-14T04:59:30.306Z,6.10
2022-11-14T05:02:01.748Z,5.40
2022-11-14T05:04:33.097Z,5.90
2022-11-14T05:07:04.610Z,5.90
2022-11-14T05:09:36.987Z,6.00
2022-11-14T05:12:09.175Z,5.80
2022-11-14T05:14:40.683Z,5.70
2022-11-14T05:17:12.034Z,4.80
2022-11-14T05:19:43.510Z,5.70
2022-11-14T05:22:14.831Z,5.90
2022-11-14T05:24:46.175Z,5.70
2022-11-14T05:27:17.712Z,5.70
2022-11-14T05:29:49.129Z,6.30
2022-11-14T05:32:20.729Z,5.50
2022-11-14T05:34:52.185Z,6.10
2022-11-14T05:37:23.533Z,6.60
2022-11-14T05:39:54.995Z,6.20
2022-11-14T05:42:26.283Z,5.90
2022-11-14T05:44:57.743Z,5.90
2022-11-14T05:47:29.145Z,6.40
2022-11-14T05:50:00.501Z,5.90
2022-11-14T05:52:32.078Z,6.10
2022-11-14T05:55:03.585Z,6.80
2022-11-14T05:57:36.184Z,6.50
2022-11-14T06:00:09.512Z,6.80
2022-11-14T06:02:40.900Z,6.80
2022-11-14T06:05:12.570Z,6.30
2022-11-14T06:07:43.919Z,7.00
2022-11-14T06:10:15.683Z,6.00
2022-11-14T06:12:47.071Z,7.00
2022-11-14T06:15:19.011Z,5.60
2022-11-14T06:17:50.779Z,6.60
2022-11-14T06:20:22.314Z,7.10
2022-11-14T06:22:57.108Z,7.70
2022-11-14T06:27:59.954Z,7.50
2022-11-14T06:30:31.335Z,6.90
2022-11-14T06:33:02.652Z,7.00
2022-11-14T06:35:34.592Z,7.10
2022-11-14T06:38:06.187Z,7.40
2022-11-14T06:40:38.721Z,7.70
2022-11-14T06:43:10.222Z,6.30
2022-11-14T06:45:42.271Z,7.30
2022-11-14T06:48:13.655Z,5.90
2022-11-14T06:50:45.501Z,6.90
2022-11-14T06:53:17.872Z,7.70
2022-11-14T06:55:57.638Z,6.40
2022-11-14T06:58:31.523Z,6.80
2022-11-14T07:01:09.073Z,7.40
2022-11-14T07:03:41.293Z,6.60
2022-11-14T07:06:14.677Z,5.80
2022-11-14T07:08:46.483Z,6.50
2022-11-14T07:11:24.203Z,6.90
2022-11-14T07:13:56.757Z,6.70
2022-11-14T07:16:30.946Z,6.30
2022-11-14T07:19:03.225Z,7.30
2022-11-14T07:21:35.587Z,6.50
2022-11-14T07:24:07.574Z,5.70
2022-11-14T07:26:38.963Z,5.50
2022-11-14T07:29:10.342Z,6.10
2022-11-14T07:31:41.937Z,6.40
2022-11-14T07:34:13.879Z,5.30
2022-11-14T07:36:45.398Z,6.60
2022-11-14T07:39:16.883Z,5.80
2022-11-14T07:41:48.365Z,7.10
2022-11-14T07:44:19.811Z,6.40
2022-11-14T07:46:52.341Z,6.30
2022-11-14T07:49:23.887Z,6.10
2022-11-14T07:51:55.407Z,6.10
2022-11-14T07:54:26.930Z,6.10
2022-11-14T07:56:58.339Z,6.80
2022-11-14T07:59:29.662Z,6.80
2022-11-14T08:02:01.028Z,6.50
2022-11-14T08:04:32.430Z,6.30
2022-11-14T08:07:04.197Z,6.70
2022-11-14T08:09:35.811Z,6.10
2022-11-14T08:12:08.161Z,6.60
2022-11-14T08:14:39.590Z,7.90
2022-11-14T08:17:11.876Z,7.10
2022-11-14T08:19:43.380Z,7.00
2022-11-14T08:22:14.772Z,7.00
2022-11-14T08:24:46.153Z,7.90
2022-11-14T08:27:17.690Z,7.40
2022-11-14T08:29:49.075Z,7.60
2022-11-14T08:32:20.659Z,8.20
2022-11-14T08:34:52.281Z,7.50
2022-11-14T08:37:24.001Z,7.70
2022-11-14T08:39:55.381Z,7.80
2022-11-14T08:42:26.866Z,7.30
2022-11-14T08:44:58.282Z,9.10
2022-11-14T08:47:29.749Z,9.50
2022-11-14T08:50:01.446Z,8.30
2022-11-14T08:52:32.923Z,6.70
2022-11-14T08:55:04.297Z,8.80
2022-11-14T08:57:35.798Z,10.20
2022-11-14T09:00:08.875Z,9.80
2022-11-14T09:02:40.737Z,9.80
2022-11-14T09:05:18.606Z,9.40
2022-11-14T09:07:58.520Z,9.40
2022-11-14T09:10:30.079Z,9.70
2022-11-14T09:13:02.288Z,9.80
2022-11-14T09:15:35.364Z,10.40
2022-11-14T09:18:07.010Z,9.80
2022-11-14T09:20:40.308Z,9.30
2022-11-14T09:23:13.804Z,9.80
2022-11-14T09:25:45.605Z,11.00
2022-11-14T09:28:17.336Z,11.00
2022-11-14T09:30:49.162Z,10.00
2022-11-14T09:33:20.746Z,9.40
2022-11-14T09:35:57.224Z,10.80
2022-11-14T09:38:32.795Z,12.40
2022-11-14T09:41:26.512Z,11.30
2022-11-14T09:44:30.726Z,12.00
2022-11-14T09:47:07.018Z,12.50
2022-11-14T09:49:41.076Z,12.00
2022-11-14T09:52:21.866Z,13.40
2022-11-14T09:54:58.673Z,13.40
2022-11-14T09:57:31.589Z,12.70
2022-11-14T10:00:03.485Z,14.50
2022-11-14T10:02:48.557Z,12.80
2022-11-14T10:05:29.811Z,14.50
2022-11-14T10:08:15.649Z,14.30
2022-11-14T10:10:54.775Z,13.50
2022-11-14T10:13:48.347Z,14.80
2022-11-14T10:16:27.503Z,15.50
2022-11-14T10:19:11.092Z,13.60
2022-11-14T10:22:05.011Z,14.00
2022-11-14T10:24:49.276Z,13.60
2022-11-14T10:27:26.969Z,15.90
2022-11-14T10:30:07.804Z,15.60
2022-11-14T10:33:01.397Z,15.40
2022-11-14T10:35:38.181Z,15.60
2022-11-14T10:38:20.591Z,16.70
2022-11-14T10:40:58.449Z,17.50
2022-11-14T10:43:41.173Z,16.80
2022-11-14T10:46:16.424Z,17.00
2022-11-14T10:48:51.861Z,18.60
2022-11-14T10:51:31.382Z,17.10
2022-11-14T10:54:08.651Z,17.70
2022-11-14T10:56:49.787Z,17.40
2022-11-14T10:59:21.403Z,17.00
2022-11-14T11:01:59.497Z,17.00
2022-11-14T11:04:32.232Z,17.30
2022-11-14T11:07:41.320Z,17.70
2022-11-14T11:10:42.634Z,17.00
2022-11-14T11:13:30.074Z,15.70
2022-11-14T11:16:03.886Z,16.70
2022-11-14T11:18:37.167Z,17.70
2022-11-14T11:21:14.087Z,17.30
2022-11-14T11:23:54.395Z,16.40
2022-11-14T11:26:30.452Z,15.90
2022-11-14T11:29:16.957Z,17.50
2022-11-14T11:31:55.629Z,15.90
2022-11-14T11:34:29.406Z,19.30
2022-11-14T11:37:06.638Z,17.20
2022-11-14T11:39:47.243Z,18.60
2022-11-14T11:42:24.495Z,16.10
2022-11-14T11:45:01.598Z,18.40
2022-11-14T11:47:37.476Z,17.20
2022-11-14T11:50:19.394Z,16.80
2022-11-14T11:52:59.062Z,18.50
2022-11-14T11:55:35.017Z,18.50
2022-11-14T11:58:14.277Z,17.00
2022-11-14T12:00:45.884Z,16.60
2022-11-14T12:03:21.786Z,18.50
2022-11-14T12:06:04.921Z,17.60
2022-11-14T12:08:48.439Z,18.20
2022-11-14T12:11:24.002Z,18.90
2022-11-14T12:14:38.441Z,18.90
2022-11-14T12:17:30.465Z,20.00
2022-11-14T12:20:16.403Z,19.50
2022-11-14T12:23:09.544Z,19.50
2022-11-14T12:25:59.155Z,20.10
2022-11-14T12:28:47.421Z,19.00
2022-11-14T12:31:19.816Z,18.70
2022-11-14T12:33:59.480Z,18.10
2022-11-14T12:36:34.887Z,19.00
2022-11-14T12:39:06.613Z,19.10
2022-11-14T12:41:42.137Z,18.10
2022-11-14T12:44:35.922Z,21.10
2022-11-14T12:47:19.543Z,16.90
2022-11-14T12:50:42.504Z,19.60
2022-11-14T12:53:43.482Z,20.50
2022-11-14T12:56:53.688Z,16.40
2022-11-14T12:59:40.945Z,17.40
2022-11-14T13:02:42.004Z,14.90
2022-11-14T13:05:47.031Z,17.20
2022-11-14T13:08:39.781Z,18.10
2022-11-14T13:11:55.920Z,18.20
2022-11-14T13:14:45.541Z,15.80
2022-11-14T13:17:46.139Z,16.20
2022-11-14T13:20:51.455Z,16.70
2022-11-14T13:23:59.192Z,17.40
2022-11-14T13:26:53.247Z,15.20
2022-11-14T13:29:51.051Z,16.40
2022-11-14T13:32:55.966Z,14.60
2022-11-14T13:35:48.607Z,16.50
2022-11-14T13:39:01.826Z,16.90
2022-11-14T13:42:14.171Z,15.70
2022-11-14T13:45:17.350Z,15.00
2022-11-14T13:48:30.934Z,15.20
2022-11-14T13:51:28.627Z,15.70
2022-11-14T13:54:05.398Z,16.60
2022-11-14T13:56:44.535Z,13.90
2022-11-14T13:59:46.804Z,15.10
2022-11-14T14:02:50.581Z,15.70
2022-11-14T14:05:31.677Z,14.40
2022-11-14T14:08:21.129Z,16.30
2022-11-14T14:11:05.928Z,16.20
2022-11-14T14:13:55.544Z,17.40
2022-11-14T14:16:36.922Z,17.30
2022-11-14T14:19:16.542Z,14.70
2022-11-14T14:21:57.404Z,16.30
2022-11-14T14:24:52.337Z,18.40
2022-11-14T14:27:31.016Z,17.70
2022-11-14T14:30:11.029Z,22.90
2022-11-14T14:32:42.614Z,17.10
2022-11-14T14:35:28.942Z,17.20
2022-11-14T14:38:00.850Z,16.70
2022-11-14T14:40:35.564Z,17.20
2022-11-14T14:45:50.090Z,15.60
2022-11-14T14:48:28.491Z,17.70
2022-11-14T14:51:03.241Z,17.70
2022-11-14T14:53:36.452Z,17.30
2022-11-14T14:56:18.923Z,19.10
2022-11-14T14:58:50.490Z,19.80
2022-11-14T15:01:26.326Z,17.30
2022-11-14T15:04:04.849Z,18.10
2022-11-14T15:06:40.000Z,16.30
2022-11-14T15:09:16.194Z,27.30
2022-11-14T15:11:51.958Z,28.90
2022-11-14T15:14:27.263Z,20.40
2022-11-14T15:17:00.136Z,17.10
2022-11-14T15:19:39.547Z,21.40
2022-11-14T15:22:26.255Z,19.30
2022-11-14T15:25:24.575Z,17.50
2022-11-14T15:27:59.206Z,16.10
2022-11-14T15:30:35.058Z,16.60
2022-11-14T15:33:08.472Z,16.40
2022-11-14T15:35:41.572Z,16.90
2022-11-14T15:41:23.074Z,16.50
2022-11-14T15:44:01.972Z,17.30
2022-11-14T15:46:50.479Z,15.50
2022-11-14T15:49:26.529Z,17.70
2022-11-14T15:52:00.904Z,16.50
2022-11-14T15:54:34.221Z,16.40
2022-11-14T15:57:17.738Z,16.90
2022-11-14T15:59:49.873Z,17.30
2022-11-14T16:02:23.686Z,15.90
2022-11-14T16:04:56.049Z,18.00
2022-11-14T16:07:29.607Z,18.50
2022-11-14T16:10:01.958Z,20.10
2022-11-14T16:12:33.829Z,21.80
2022-11-14T16:15:05.528Z,19.90
2022-11-14T16:17:41.386Z,20.40
2022-11-14T16:20:18.325Z,20.90
2022-11-14T16:22:51.286Z,19.10
2022-11-14T16:25:25.014Z,16.70
2022-11-14T16:27:57.162Z,17.10
2022-11-14T16:30:29.324Z,17.60
2022-11-14T16:33:00.897Z,18.90
2022-11-14T16:35:33.425Z,18.30
2022-11-14T16:38:04.913Z,17.40
2022-11-14T16:40:36.579Z,17.20
2022-11-14T16:43:08.055Z,15.00
2022-11-14T16:45:43.176Z,17.30
2022-11-14T16:48:15.125Z,16.50
2022-11-14T16:50:46.935Z,17.30
2022-11-14T16:53:18.518Z,18.30
2022-11-14T16:55:50.200Z,18.70
2022-11-14T16:58:23.956Z,18.20
2022-11-14T17:00:56.802Z,17.50
2022-11-14T17:03:28.745Z,16.80
2022-11-14T17:06:00.418Z,17.90
2022-11-14T17:08:32.433Z,17.00
2022-11-14T17:11:09.228Z,16.50
2022-11-14T17:13:40.755Z,17.30
2022-11-14T17:16:13.060Z,16.80
2022-11-14T17:18:44.833Z,18.50
2022-11-14T17:21:16.422Z,19.10
2022-11-14T17:23:48.114Z,19.10
2022-11-14T17:26:19.738Z,18.30
2022-11-14T17:28:51.430Z,20.60
2022-11-14T17:31:23.204Z,19.30
2022-11-14T17:33:59.507Z,20.00
2022-11-14T17:36:34.072Z,21.10
2022-11-14T17:39:06.562Z,20.40
2022-11-14T17:41:39.145Z,21.10
2022-11-14T17:44:14.046Z,19.10
2022-11-14T17:49:16.390Z,17.20
2022-11-14T17:51:48.432Z,19.30
2022-11-14T17:54:20.570Z,19.20
2022-11-14T17:56:55.007Z,20.00
2022-11-14T18:02:00.787Z,17.70
2022-11-14T18:04:32.928Z,16.60
2022-11-14T18:07:04.935Z,18.80
2022-11-14T18:09:37.200Z,18.40
2022-11-14T18:12:11.614Z,17.80
2022-11-14T18:14:44.507Z,17.60
2022-11-14T18:17:16.981Z,18.10
2022-11-14T18:19:49.299Z,16.00
2022-11-14T18:22:24.077Z,18.80
2022-11-14T18:27:26.379Z,17.70
2022-11-14T18:30:13.793Z,19.20
2022-11-14T18:32:53.862Z,18.60
2022-11-14T18:35:27.364Z,18.30
2022-11-14T18:37:59.748Z,15.90
2022-11-14T18:40:32.759Z,18.00
2022-11-14T18:43:05.348Z,18.20
2022-11-14T18:45:40.708Z,18.40
2022-11-14T18:48:13.381Z,15.60
2022-11-14T18:50:52.004Z,17.20
2022-11-14T18:53:25.735Z,18.30
2022-11-14T18:55:57.816Z,19.70
2022-11-14T18:58:32.754Z,18.30
2022-11-14T19:01:12.943Z,17.10
2022-11-14T19:03:44.887Z,18.70
2022-11-14T19:06:16.475Z,18.40
2022-11-14T19:08:48.735Z,18.70
2022-11-14T19:11:40.617Z,19.50
2022-11-14T19:14:12.600Z,17.90
2022-11-14T19:16:44.917Z,20.00
2022-11-14T19:19:16.658Z,19.80
2022-11-14T19:21:52.176Z,18.60
2022-11-14T19:24:24.256Z,20.30
2022-11-14T19:26:57.768Z,18.50
2022-11-14T19:29:29.801Z,19.10
2022-11-14T19:32:01.486Z,19.00
2022-11-14T19:34:33.093Z,19.20
2022-11-14T19:37:07.047Z,20.30
2022-11-14T19:39:39.060Z,18.80
2022-11-14T19:42:11.090Z,20.40
2022-11-14T19:44:43.126Z,17.80
2022-11-14T19:47:15.245Z,19.00
2022-11-14T19:49:47.378Z,19.70
2022-11-14T19:52:19.899Z,18.00
2022-11-14T19:54:53.643Z,19.70
2022-11-14T19:57:25.661Z,18.40
2022-11-14T19:59:57.934Z,18.60
2022-11-14T20:02:30.455Z,18.80
2022-11-14T20:05:02.962Z,19.40
2022-11-14T20:07:37.461Z,16.80
2022-11-14T20:12:41.107Z,17.70
2022-11-14T20:15:14.310Z,18.70
2022-11-14T20:17:46.003Z,18.40
2022-11-14T20:20:18.007Z,18.90
2022-11-14T20:22:52.257Z,19.30
2022-11-14T20:25:24.671Z,17.40
2022-11-14T20:27:56.977Z,18.30
2022-11-14T20:30:28.845Z,18.60
2022-11-14T20:33:00.924Z,18.20
2022-11-14T20:35:35.686Z,18.20
2022-11-14T20:40:39.561Z,18.10
2022-11-14T20:43:12.684Z,17.70
2022-11-14T20:45:45.009Z,19.70
2022-11-14T20:48:20.492Z,17.10
2022-11-14T20:50:52.856Z,18.10
2022-11-14T20:53:24.830Z,19.10
2022-11-14T20:56:00.413Z,19.50
2022-11-14T20:58:32.822Z,17.70
2022-11-14T21:01:06.325Z,19.20
2022-11-14T21:03:38.939Z,19.50
2022-11-14T21:06:13.398Z,19.20
2022-11-14T21:08:46.397Z,21.30
2022-11-14T21:11:19.940Z,18.70
2022-11-14T21:14:00.933Z,19.70
2022-11-14T21:16:35.039Z,21.40
2022-11-14T21:19:08.423Z,20.40
2022-11-14T21:21:41.305Z,22.00
2022-11-14T21:24:13.117Z,21.20
2022-11-14T21:26:44.695Z,19.60
2022-11-14T21:29:17.401Z,21.20
2022-11-14T21:31:49.811Z,21.50
2022-11-14T21:34:21.289Z,21.10
2022-11-14T21:36:53.026Z,19.40
2022-11-14T21:39:24.708Z,23.10
2022-11-14T21:41:56.291Z,21.10
2022-11-14T21:44:27.740Z,21.60
2022-11-14T21:46:59.298Z,22.70
2022-11-14T21:49:30.921Z,23.10
2022-11-14T21:52:02.347Z,23.20
2022-11-14T21:54:33.964Z,24.10
2022-11-14T21:57:09.811Z,24.80
2022-11-14T21:59:42.379Z,23.60
2022-11-14T22:02:32.779Z,26.20
2022-11-14T22:05:04.449Z,26.10
2022-11-14T22:07:36.371Z,25.00
2022-11-14T22:10:09.103Z,24.50
2022-11-14T22:12:40.696Z,24.60
2022-11-14T22:15:13.257Z,26.10
2022-11-14T22:17:44.816Z,20.50
2022-11-14T22:20:17.208Z,23.50
2022-11-14T22:22:49.002Z,23.10
2022-11-14T22:25:20.764Z,23.60
2022-11-14T22:27:54.613Z,23.10
2022-11-14T22:30:26.258Z,20.10
2022-11-14T22:33:00.291Z,21.40
2022-11-14T22:35:36.201Z,24.20
2022-11-14T22:38:08.039Z,22.60
2022-11-14T22:40:39.935Z,23.40
2022-11-14T22:43:15.877Z,23.60
2022-11-14T22:46:01.275Z,23.90
2022-11-14T22:48:35.250Z,19.80
2022-11-14T22:51:09.840Z,23.20
2022-11-14T22:53:53.063Z,21.80
2022-11-14T22:56:35.356Z,20.40
2022-11-14T22:59:07.442Z,18.20
2022-11-14T23:01:39.336Z,20.10
2022-11-14T23:04:20.143Z,20.10
2022-11-14T23:06:51.997Z,21.10
2022-11-14T23:09:23.781Z,19.90
2022-11-14T23:11:57.958Z,21.10
2022-11-14T23:14:29.903Z,21.40
2022-11-14T23:17:01.742Z,19.00
2022-11-14T23:19:33.730Z,20.50
2022-11-14T23:22:05.375Z,20.40
2022-11-14T23:24:37.334Z,18.10
2022-11-14T23:27:09.299Z,20.70
2022-11-14T23:32:47.343Z,20.80
2022-11-14T23:35:19.181Z,20.10
2022-11-14T23:37:50.941Z,20.40
2022-11-14T23:43:50.293Z,19.80
2022-11-14T23:46:22.625Z,21.20
2022-11-14T23:48:55.145Z,21.80
2022-11-14T23:51:27.098Z,19.60
2022-11-14T23:53:59.177Z,20.90
2022-11-14T23:56:31.392Z,20.50
2022-11-14T23:59:03.356Z,19.20
